Englewood, Illinois
Current Conditions -  °F | °C
As of 8:53 PM on Tuesday 21 Oct 2014 (Local Time) from KMDW Reporting Station
Overcast Overcast  
Wind Chill: 50°   Ceiling: 2800
Heat Index: 50°   Visibility: 10mi
Dew Point: 39°   Wind: 10mph
Humidity: 66%   Direction: 20°NNE
Pressure: 30.25"   Gusts: NA
Location:  41.7763°N, 87.6399°W
Report Text: KMDW 220153Z 02009KT 10SM OVC028 10/04 A3025 RMK AO2 SLP247 T01000039
Loading
Personal Weather Stations






























Interactive Weather Map
Tropical Storm Tracking
New forecast layout! Learn more

10-Day Weather Forecast

Advertisements
Track Severe Weather on mobile